Terminal Aerodrome Forecast
Issued by NWS

Home | Current Version | Previous Version | Text Only | Print | Product List | Glossary On
Versions: 1 2 3 4 5 6 7 8 9 10 11 12 13 14 15 16 17
000
FTAK31 PAJN 230300 AAA
TAFASI
TAF AMD
PASI 230358Z 2304/2324 22005KT P6SM VCSH BKN015 OVC090
     FM231000 00000KT P6SM BKN050 OVC080
     FM231500 22006KT P6SM BKN040 OVC070
     FM232200 24006KT P6SM VCSH BKN035 OVC060=

USA.gov is the U.S. government's official web portal to all federal, state and local government web resources and services.